createdAt,value
2024-01-22T00:02:14.893Z,52.00
2024-01-22T00:05:04.669Z,51.00
2024-01-22T00:07:53.808Z,52.00
2024-01-22T00:10:43.113Z,58.00
2024-01-22T00:13:32.302Z,53.00
2024-01-22T00:16:21.581Z,56.50
2024-01-22T00:19:11.019Z,66.00
2024-01-22T00:22:00.198Z,54.00
2024-01-22T00:24:52.548Z,58.00
2024-01-22T00:27:41.604Z,56.00
2024-01-22T00:30:33.703Z,55.00
2024-01-22T00:33:23.088Z,61.50
2024-01-22T00:36:15.791Z,49.00
2024-01-22T00:39:05.237Z,49.33
2024-01-22T00:41:54.722Z,51.33
2024-01-22T00:44:45.842Z,50.33
2024-01-22T00:47:34.929Z,59.33
2024-01-22T00:50:24.362Z,52.00
2024-01-22T00:53:13.525Z,55.50
2024-01-22T00:56:04.207Z,51.50
2024-01-22T00:58:54.629Z,51.75
2024-01-22T01:01:43.749Z,47.00
2024-01-22T01:04:35.998Z,41.00
2024-01-22T01:07:25.186Z,50.67
2024-01-22T01:10:14.557Z,45.00
2024-01-22T01:13:03.832Z,51.00
2024-01-22T01:15:52.847Z,46.50
2024-01-22T01:18:42.131Z,48.00
2024-01-22T01:21:31.386Z,42.25
2024-01-22T01:24:20.814Z,48.00
2024-01-22T01:27:10.174Z,46.00
2024-01-22T01:29:59.313Z,39.67
2024-01-22T01:32:48.684Z,39.67
2024-01-22T01:35:38.164Z,46.00
2024-01-22T01:38:27.618Z,66.67
2024-01-22T01:41:16.665Z,51.00
2024-01-22T01:44:05.910Z,48.00
2024-01-22T01:46:55.208Z,48.67
2024-01-22T01:49:44.592Z,48.67
2024-01-22T01:52:34.060Z,60.00
2024-01-22T01:55:23.538Z,51.33
2024-01-22T01:58:12.692Z,53.00
2024-01-22T02:01:02.803Z,40.00
2024-01-22T02:03:52.208Z,48.00
2024-01-22T02:06:42.095Z,45.33
2024-01-22T02:09:52.458Z,49.00
2024-01-22T02:12:41.765Z,38.33
2024-01-22T02:15:30.853Z,52.00
2024-01-22T02:18:20.156Z,42.00
2024-01-22T02:21:09.452Z,42.00
2024-01-22T02:23:58.773Z,39.25
2024-01-22T02:26:47.896Z,45.00
2024-01-22T02:29:37.278Z,40.00
2024-01-22T02:32:26.610Z,45.33
2024-01-22T02:35:15.968Z,48.50
2024-01-22T02:38:05.499Z,44.00
2024-01-22T02:40:54.551Z,46.00
2024-01-22T02:43:44.196Z,41.75
2024-01-22T02:46:34.225Z,37.33
2024-01-22T02:49:23.713Z,47.00
2024-01-22T02:52:12.959Z,42.00
2024-01-22T02:55:05.312Z,46.00
2024-01-22T02:57:54.625Z,39.50
2024-01-22T03:00:46.890Z,38.67
2024-01-22T03:03:36.612Z,42.25
2024-01-22T03:06:25.926Z,45.00
2024-01-22T03:09:16.153Z,33.33
2024-01-22T03:12:06.003Z,41.50
2024-01-22T03:14:55.366Z,34.00
2024-01-22T03:17:44.865Z,44.50
2024-01-22T03:20:35.020Z,41.00
2024-01-22T03:23:24.239Z,46.00
2024-01-22T03:26:21.325Z,38.50
2024-01-22T03:29:10.498Z,36.00
2024-01-22T03:31:59.564Z,43.00
2024-01-22T03:34:48.873Z,36.00
2024-01-22T03:37:37.999Z,43.67
2024-01-22T03:40:27.125Z,49.50
2024-01-22T03:43:16.180Z,45.00
2024-01-22T03:46:05.503Z,45.33
2024-01-22T03:48:54.740Z,45.00
2024-01-22T03:51:43.934Z,42.67
2024-01-22T03:54:33.010Z,37.50
2024-01-22T03:57:22.300Z,45.00
2024-01-22T04:00:12.125Z,41.00
2024-01-22T04:03:01.601Z,49.00
2024-01-22T04:05:51.058Z,47.33
2024-01-22T04:08:40.265Z,42.00
2024-01-22T04:11:29.488Z,45.00
2024-01-22T04:14:18.708Z,52.00
2024-01-22T04:17:07.961Z,42.00
2024-01-22T04:19:57.349Z,48.00
2024-01-22T04:22:46.463Z,37.67
2024-01-22T04:25:35.570Z,47.50
2024-01-22T04:28:25.042Z,42.50
2024-01-22T04:31:14.346Z,48.00
2024-01-22T04:34:03.958Z,45.50
2024-01-22T04:36:55.615Z,54.00
2024-01-22T04:39:44.726Z,46.00
2024-01-22T04:42:33.941Z,39.00
2024-01-22T04:45:23.725Z,43.00
2024-01-22T04:48:15.968Z,42.67
2024-01-22T04:51:06.035Z,49.00
2024-01-22T04:53:55.292Z,45.00
2024-01-22T04:56:47.043Z,40.67
2024-01-22T04:59:36.470Z,36.25
2024-01-22T05:02:28.961Z,46.33
2024-01-22T05:05:18.392Z,49.00
2024-01-22T05:08:08.048Z,40.00
2024-01-22T05:10:57.328Z,45.00
2024-01-22T05:13:53.604Z,43.33
2024-01-22T05:16:42.832Z,46.33
2024-01-22T05:19:32.803Z,45.00
2024-01-22T05:22:22.800Z,35.00
2024-01-22T05:25:12.133Z,46.00
2024-01-22T05:28:01.200Z,48.00
2024-01-22T05:30:51.592Z,67.00
2024-01-22T05:33:41.343Z,52.00
2024-01-22T05:36:30.780Z,54.50
2024-01-22T05:39:20.029Z,59.67
2024-01-22T05:42:09.531Z,48.00
2024-01-22T05:44:58.933Z,52.00
2024-01-22T05:47:48.684Z,61.00
2024-01-22T05:50:17.764Z,48.67
2024-01-22T05:52:46.727Z,49.00
2024-01-22T05:55:19.584Z,54.00
2024-01-22T05:57:49.459Z,45.00
2024-01-22T06:00:20.409Z,41.50
2024-01-22T06:02:50.051Z,49.00
2024-01-22T06:05:20.233Z,46.00
2024-01-22T06:07:49.581Z,43.00
2024-01-22T06:10:18.943Z,36.00
2024-01-22T06:12:49.349Z,37.00
2024-01-22T06:15:18.778Z,45.00
2024-01-22T06:17:47.826Z,39.75
2024-01-22T06:20:17.137Z,48.67
2024-01-22T06:22:46.387Z,56.00
2024-01-22T06:25:16.535Z,50.00
2024-01-22T06:27:46.881Z,129.50
2024-01-22T06:30:17.506Z,49.75
2024-01-22T06:32:46.890Z,53.00
2024-01-22T06:35:36.482Z,49.00
2024-01-22T06:38:27.013Z,46.00
2024-01-22T06:41:20.533Z,47.50
2024-01-22T06:44:09.944Z,43.00
2024-01-22T06:46:59.319Z,45.67
2024-01-22T06:49:49.070Z,32.00
2024-01-22T06:52:38.682Z,40.00
2024-01-22T06:55:28.113Z,43.75
2024-01-22T06:58:18.495Z,43.00
2024-01-22T07:01:08.772Z,46.00
2024-01-22T07:03:58.588Z,54.33
2024-01-22T07:06:48.262Z,48.33
2024-01-22T07:09:39.292Z,43.67
2024-01-22T07:12:31.801Z,49.67
2024-01-22T07:15:21.415Z,48.00
2024-01-22T07:18:11.263Z,48.00
2024-01-22T07:21:01.029Z,49.67
2024-01-22T07:23:50.491Z,51.33
2024-01-22T07:26:40.078Z,49.50
2024-01-22T07:29:29.815Z,48.00
2024-01-22T07:32:19.354Z,49.00
2024-01-22T07:35:15.023Z,48.00
2024-01-22T07:38:08.885Z,51.00
2024-01-22T07:40:58.559Z,49.00
2024-01-22T07:43:48.611Z,42.67
2024-01-22T07:46:38.088Z,52.00
2024-01-22T07:49:28.049Z,161.00
2024-01-22T07:52:18.210Z,261.75
2024-01-22T07:55:29.706Z,232.00
2024-01-22T07:58:19.240Z,72.00
2024-01-22T08:01:08.897Z,54.00
2024-01-22T08:03:58.681Z,56.50
2024-01-22T08:06:48.521Z,52.67
2024-01-22T08:09:38.447Z,52.00
2024-01-22T08:12:28.389Z,54.00
2024-01-22T08:15:18.874Z,53.00
2024-01-22T08:18:08.711Z,58.00
2024-01-22T08:20:58.730Z,52.67
2024-01-22T08:23:48.537Z,61.00
2024-01-22T08:26:38.230Z,55.00
2024-01-22T08:29:27.999Z,57.00
2024-01-22T08:32:17.415Z,61.00
2024-01-22T08:35:07.443Z,57.00
2024-01-22T08:37:57.303Z,62.33
2024-01-22T08:40:47.231Z,57.00
2024-01-22T08:43:37.051Z,61.67
2024-01-22T08:46:27.271Z,59.00
2024-01-22T08:49:19.985Z,54.00
2024-01-22T08:52:10.125Z,60.33
2024-01-22T08:55:01.747Z,54.00
2024-01-22T09:01:20.565Z,58.00
2024-01-22T09:03:50.591Z,61.00
2024-01-22T09:06:20.435Z,52.00
2024-01-22T09:08:50.299Z,60.50
2024-01-22T09:11:20.332Z,58.00
2024-01-22T09:13:49.916Z,54.00
2024-01-22T09:16:20.764Z,54.67
2024-01-22T09:18:50.307Z,58.00
2024-01-22T09:21:20.335Z,67.00
2024-01-22T09:23:50.314Z,61.00
2024-01-22T09:26:19.585Z,58.00
2024-01-22T09:28:50.080Z,61.67
2024-01-22T09:31:20.278Z,61.00
2024-01-22T09:33:52.877Z,55.00
2024-01-22T09:36:23.559Z,59.00
2024-01-22T09:38:53.128Z,61.00
2024-01-22T09:41:23.049Z,67.00
2024-01-22T09:44:30.207Z,58.00
2024-01-22T09:47:05.351Z,63.00
2024-01-22T09:49:34.845Z,64.00
2024-01-22T09:52:05.933Z,75.00
2024-01-22T09:54:36.037Z,80.00
2024-01-22T09:57:09.665Z,68.00
2024-01-22T09:59:40.272Z,61.00
2024-01-22T10:02:31.174Z,66.00
2024-01-22T10:05:05.804Z,66.00
2024-01-22T10:07:35.697Z,54.33
2024-01-22T10:10:05.869Z,66.00
2024-01-22T10:13:02.068Z,61.67
2024-01-22T10:15:33.626Z,69.50
2024-01-22T10:18:15.832Z,69.00
2024-01-22T10:20:47.379Z,64.00
2024-01-22T10:23:20.044Z,66.00
2024-01-22T10:25:50.153Z,60.00
2024-01-22T10:28:21.826Z,58.00
2024-01-22T10:31:05.630Z,57.00
2024-01-22T10:33:36.247Z,58.00
2024-01-22T10:36:24.315Z,57.33
2024-01-22T10:39:07.207Z,49.75
2024-01-22T10:41:37.516Z,57.00
2024-01-22T10:44:11.107Z,54.00
2024-01-22T10:46:41.516Z,49.00
2024-01-22T10:49:12.509Z,54.00
2024-01-22T10:51:42.794Z,52.00
2024-01-22T10:54:13.128Z,75.67
2024-01-22T10:56:44.488Z,69.00
2024-01-22T10:59:20.275Z,57.50
2024-01-22T11:01:50.327Z,75.00
2024-01-22T11:04:29.071Z,63.67
2024-01-22T11:07:04.714Z,60.00
2024-01-22T11:09:35.650Z,61.00
2024-01-22T11:12:11.174Z,66.00
2024-01-22T11:14:42.592Z,57.50
2024-01-22T11:17:12.816Z,58.00
2024-01-22T11:19:42.660Z,52.00
2024-01-22T11:22:24.512Z,57.00
2024-01-22T11:25:04.590Z,53.33
2024-01-22T11:27:42.380Z,57.00
2024-01-22T11:30:27.549Z,50.00
2024-01-22T11:32:57.666Z,55.00
2024-01-22T11:35:45.790Z,60.25
2024-01-22T11:38:16.453Z,59.00
2024-01-22T11:40:56.971Z,72.75
2024-01-22T11:43:27.089Z,58.00
2024-01-22T11:46:00.513Z,55.00
2024-01-22T11:48:31.821Z,62.00
2024-01-22T11:51:04.484Z,60.00
2024-01-22T11:53:53.960Z,66.00
2024-01-22T11:56:25.906Z,65.50
2024-01-22T11:59:04.005Z,65.00
2024-01-22T12:01:33.729Z,63.00
2024-01-22T12:04:17.580Z,65.00
2024-01-22T12:06:54.275Z,73.33
2024-01-22T12:09:24.058Z,64.00
2024-01-22T12:11:55.375Z,79.00
2024-01-22T12:14:27.972Z,68.50
2024-01-22T12:17:04.705Z,67.00
2024-01-22T12:19:34.496Z,63.33
2024-01-22T12:22:03.958Z,62.00
2024-01-22T12:25:05.398Z,66.00
2024-01-22T12:27:55.408Z,82.50
2024-01-22T12:30:46.662Z,85.50
2024-01-22T12:33:39.168Z,75.67
2024-01-22T12:36:29.294Z,85.00
2024-01-22T12:39:22.767Z,66.00
2024-01-22T12:42:21.794Z,64.00
2024-01-22T12:45:16.724Z,64.00
2024-01-22T12:48:07.478Z,66.00
2024-01-22T12:50:57.890Z,65.50
2024-01-22T12:53:49.025Z,66.50
2024-01-22T12:56:40.932Z,70.00
2024-01-22T12:59:31.557Z,60.00
2024-01-22T13:02:22.798Z,57.00
2024-01-22T13:05:13.407Z,60.67
2024-01-22T13:08:03.767Z,62.00
2024-01-22T13:10:54.157Z,57.00
2024-01-22T13:13:44.468Z,63.75
2024-01-22T13:16:35.265Z,66.50
2024-01-22T13:19:26.311Z,60.25
2024-01-22T13:22:16.529Z,66.00
2024-01-22T13:25:07.843Z,66.50
2024-01-22T13:27:59.302Z,60.33
2024-01-22T13:30:49.330Z,66.00
2024-01-22T13:33:43.462Z,59.67
2024-01-22T13:36:37.567Z,63.00
2024-01-22T13:39:27.657Z,66.75
2024-01-22T13:42:22.364Z,64.67
2024-01-22T13:45:12.692Z,63.67
2024-01-22T13:48:02.796Z,61.00
2024-01-22T13:50:53.753Z,57.67
2024-01-22T13:53:47.014Z,66.00
2024-01-22T13:56:37.408Z,64.00
2024-01-22T13:59:27.818Z,60.75
2024-01-22T14:02:18.281Z,67.67
2024-01-22T14:05:08.926Z,66.00
2024-01-22T14:08:00.233Z,61.00
2024-01-22T14:10:50.335Z,55.50
2024-01-22T14:13:40.623Z,58.00
2024-01-22T14:16:31.101Z,67.00
2024-01-22T14:19:21.131Z,69.67
2024-01-22T14:22:11.328Z,60.67
2024-01-22T14:25:01.031Z,64.25
2024-01-22T14:27:50.788Z,66.00
2024-01-22T14:30:41.083Z,76.00
2024-01-22T14:33:31.331Z,72.33
2024-01-22T14:36:21.072Z,74.50
2024-01-22T14:39:12.504Z,69.00
2024-01-22T14:42:02.179Z,72.00
2024-01-22T14:44:54.004Z,75.50
2024-01-22T14:47:44.144Z,75.00
2024-01-22T14:50:33.782Z,86.00
2024-01-22T14:53:23.878Z,81.75
2024-01-22T14:56:14.221Z,93.75
2024-01-22T14:59:04.515Z,67.50
2024-01-22T15:01:54.354Z,69.67
2024-01-22T15:04:44.437Z,72.00
2024-01-22T15:07:35.026Z,75.00
2024-01-22T15:10:24.907Z,66.50
2024-01-22T15:13:14.555Z,67.00
2024-01-22T15:16:07.395Z,76.00
2024-01-22T15:18:58.304Z,69.00
2024-01-22T15:21:49.037Z,71.50
2024-01-22T15:24:43.317Z,76.00
2024-01-22T15:27:35.633Z,74.00
2024-01-22T15:30:28.197Z,81.00
2024-01-22T15:33:18.371Z,76.00
2024-01-22T15:36:11.166Z,77.33
2024-01-22T15:39:02.420Z,83.00
2024-01-22T15:41:52.466Z,76.50
2024-01-22T15:44:43.168Z,75.50
2024-01-22T15:47:33.965Z,72.00
2024-01-22T15:50:27.506Z,70.50
2024-01-22T15:53:17.065Z,66.33
2024-01-22T15:56:07.202Z,64.00
2024-01-22T15:58:56.852Z,67.00
2024-01-22T16:01:47.248Z,66.00
2024-01-22T16:04:37.153Z,69.00
2024-01-22T16:07:27.306Z,66.00
2024-01-22T16:10:17.722Z,70.00
2024-01-22T16:13:08.017Z,76.00
2024-01-22T16:15:58.141Z,93.00
2024-01-22T16:18:48.509Z,64.00
2024-01-22T16:21:39.751Z,73.00
2024-01-22T16:24:29.836Z,75.00
2024-01-22T16:27:19.482Z,76.00
2024-01-22T16:30:10.222Z,73.67
2024-01-22T16:33:03.186Z,69.67
2024-01-22T16:35:55.214Z,72.00
2024-01-22T16:38:45.350Z,73.00
2024-01-22T16:41:34.915Z,75.00
2024-01-22T16:44:25.011Z,77.33
2024-01-22T16:47:14.704Z,75.00
2024-01-22T16:50:05.307Z,69.00
2024-01-22T16:52:58.183Z,72.25
2024-01-22T16:55:47.694Z,78.00
2024-01-22T16:58:37.150Z,73.67
2024-01-22T17:01:29.305Z,76.00
2024-01-22T17:04:19.287Z,69.00
2024-01-22T17:06:48.777Z,88.67
2024-01-22T17:09:44.169Z,71.00
2024-01-22T17:12:14.364Z,69.67
2024-01-22T17:14:43.850Z,75.33
2024-01-22T17:17:34.883Z,73.00
2024-01-22T17:20:06.116Z,73.50
2024-01-22T17:22:35.414Z,75.33
2024-01-22T17:25:25.190Z,71.67
2024-01-22T17:27:58.991Z,72.33
2024-01-22T17:30:28.887Z,75.00
2024-01-22T17:32:58.633Z,73.50
2024-01-22T17:35:28.370Z,69.50
2024-01-22T17:38:00.241Z,75.50
2024-01-22T17:40:51.092Z,73.00
2024-01-22T17:43:40.875Z,73.00
2024-01-22T17:46:33.001Z,75.67
2024-01-22T17:49:23.642Z,74.00
2024-01-22T17:52:13.287Z,74.50
2024-01-22T17:55:02.742Z,78.00
2024-01-22T17:57:52.406Z,75.67
2024-01-22T18:00:45.218Z,74.33
2024-01-22T18:03:35.096Z,75.00
2024-01-22T18:06:24.929Z,75.00
2024-01-22T18:09:14.875Z,76.00
2024-01-22T18:12:06.128Z,75.00
2024-01-22T18:14:56.157Z,75.50
2024-01-22T18:17:46.105Z,74.50
2024-01-22T18:20:36.567Z,78.00
2024-01-22T18:23:28.860Z,76.33
2024-01-22T18:26:18.746Z,77.00
2024-01-22T18:29:16.964Z,80.00
2024-01-22T18:32:10.387Z,78.00
2024-01-22T18:34:59.910Z,79.00
2024-01-22T18:37:49.444Z,79.00
2024-01-22T18:40:39.827Z,78.00
2024-01-22T18:43:30.860Z,74.00
2024-01-22T18:46:23.775Z,76.00
2024-01-22T18:49:14.059Z,77.00
2024-01-22T18:52:04.594Z,77.33
2024-01-22T18:54:54.176Z,76.00
2024-01-22T18:57:43.968Z,76.50
2024-01-22T19:00:35.554Z,73.00
2024-01-22T19:03:26.971Z,79.00
2024-01-22T19:06:16.700Z,76.00
2024-01-22T19:09:09.680Z,85.75
2024-01-22T19:12:03.917Z,82.00
2024-01-22T19:14:55.088Z,84.00
2024-01-22T19:17:49.449Z,77.33
2024-01-22T19:20:39.481Z,64.67
2024-01-22T19:23:51.478Z,72.25
2024-01-22T19:26:47.983Z,66.00
2024-01-22T19:29:37.609Z,77.33
2024-01-22T19:32:26.942Z,72.33
2024-01-22T19:35:20.035Z,65.33
2024-01-22T19:38:41.194Z,61.00
2024-01-22T19:42:20.137Z,60.50
2024-01-22T19:45:44.084Z,136.00
2024-01-22T19:48:13.666Z,312.00
2024-01-22T19:50:43.797Z,153.67
2024-01-22T19:53:15.413Z,76.00
2024-01-22T19:56:26.641Z,63.00
2024-01-22T19:59:09.052Z,70.00
2024-01-22T20:02:28.140Z,60.00
2024-01-22T20:05:37.112Z,63.50
2024-01-22T20:09:01.992Z,63.25
2024-01-22T20:12:12.679Z,62.50
2024-01-22T20:15:24.529Z,67.00
2024-01-22T20:18:59.767Z,69.00
2024-01-22T20:22:11.355Z,69.00
2024-01-22T20:25:56.446Z,62.00
2024-01-22T20:29:39.512Z,58.25
2024-01-22T20:32:10.411Z,65.33
2024-01-22T20:35:02.372Z,66.50
2024-01-22T20:38:36.973Z,66.00
2024-01-22T20:41:22.946Z,66.00
2024-01-22T20:43:52.218Z,62.50
2024-01-22T20:46:21.631Z,69.00
2024-01-22T20:48:50.876Z,72.00
2024-01-22T20:51:20.597Z,72.33
2024-01-22T20:54:22.200Z,69.00
2024-01-22T20:57:14.516Z,72.00
2024-01-22T21:00:06.730Z,69.00
2024-01-22T21:03:02.140Z,72.00
2024-01-22T21:05:31.800Z,250.25
2024-01-22T21:08:01.366Z,331.00
2024-01-22T21:10:31.630Z,186.00
2024-01-22T21:13:04.218Z,136.50
2024-01-22T21:15:33.682Z,76.00
2024-01-22T21:18:03.267Z,70.50
2024-01-22T21:20:32.523Z,69.25
2024-01-22T21:23:02.055Z,69.00
2024-01-22T21:25:31.534Z,66.25
2024-01-22T21:28:00.648Z,70.00
2024-01-22T21:30:30.769Z,72.00
2024-01-22T21:33:00.065Z,72.67
2024-01-22T21:35:29.342Z,75.50
2024-01-22T21:38:01.752Z,64.33
2024-01-22T21:40:31.497Z,66.00
2024-01-22T21:43:00.427Z,66.00
2024-01-22T21:45:29.313Z,65.00
2024-01-22T21:47:58.536Z,67.67
2024-01-22T21:50:27.925Z,62.67
2024-01-22T21:52:57.662Z,64.00
2024-01-22T21:56:06.310Z,63.67
2024-01-22T21:58:37.556Z,61.00
2024-01-22T22:01:07.944Z,63.33
2024-01-22T22:03:38.261Z,62.50
2024-01-22T22:06:08.336Z,63.50
2024-01-22T22:08:37.549Z,64.50
2024-01-22T22:11:06.857Z,62.50
2024-01-22T22:13:36.401Z,65.25
2024-01-22T22:16:07.345Z,61.00
2024-01-22T22:18:40.449Z,64.00
2024-01-22T22:21:10.063Z,61.75
2024-01-22T22:23:39.505Z,67.00
2024-01-22T22:26:09.239Z,62.50
2024-01-22T22:28:38.758Z,64.00
2024-01-22T22:31:12.045Z,58.00
2024-01-22T22:33:41.540Z,64.00
2024-01-22T22:36:11.248Z,63.00
2024-01-22T22:38:40.626Z,258.00
2024-01-22T22:41:11.000Z,184.67
2024-01-22T22:43:40.172Z,69.00
2024-01-22T22:46:09.043Z,72.50
2024-01-22T22:48:38.210Z,63.75
2024-01-22T22:51:07.502Z,60.00
2024-01-22T22:53:40.173Z,54.50
2024-01-22T22:56:09.619Z,58.00
2024-01-22T22:58:38.825Z,61.00
2024-01-22T23:01:07.802Z,60.00
2024-01-22T23:03:37.217Z,60.00
2024-01-22T23:06:06.569Z,64.00
2024-01-22T23:08:35.855Z,59.50
2024-01-22T23:11:05.016Z,66.00
2024-01-22T23:13:33.854Z,61.00
2024-01-22T23:16:04.691Z,61.00
2024-01-22T23:18:34.338Z,66.00
2024-01-22T23:21:03.618Z,63.00
2024-01-22T23:23:43.196Z,58.00
2024-01-22T23:26:12.193Z,69.00
2024-01-22T23:28:41.122Z,65.33
2024-01-22T23:31:10.109Z,64.00
2024-01-22T23:33:42.461Z,66.00
2024-01-22T23:36:15.377Z,62.00
2024-01-22T23:38:44.666Z,59.33
2024-01-22T23:41:13.647Z,58.67
2024-01-22T23:43:42.830Z,63.75
2024-01-22T23:46:12.900Z,61.00
2024-01-22T23:48:42.156Z,60.00
2024-01-22T23:51:11.598Z,61.25
2024-01-22T23:53:40.862Z,58.00
2024-01-22T23:56:10.059Z,64.00
2024-01-22T23:58:39.236Z,58.50
